createdAt,value
2016-12-03T00:00:09.321Z,91.05
2016-12-03T00:01:09.285Z,90.58
2016-12-03T00:02:09.280Z,90.29
2016-12-03T00:03:09.277Z,90.1
2016-12-03T00:04:09.273Z,90.2
2016-12-03T00:05:09.269Z,90.48
2016-12-03T00:06:09.264Z,89.96
2016-12-03T00:07:09.261Z,89.96
2016-12-03T00:08:09.257Z,89.49
2016-12-03T00:09:09.252Z,89.49
2016-12-03T00:10:09.252Z,89.68
2016-12-03T00:11:09.245Z,90.06
2016-12-03T00:12:09.245Z,90.44
2016-12-03T00:13:09.240Z,90.25
2016-12-03T00:14:09.236Z,90.34
2016-12-03T00:15:09.236Z,90.15
2016-12-03T00:16:09.228Z,89.96
2016-12-03T00:17:08.900Z,90.06
2016-12-03T00:18:09.220Z,90.34
2016-12-03T00:19:09.220Z,90.48
2016-12-03T00:20:08.884Z,90.48
2016-12-03T00:21:09.212Z,90.39
2016-12-03T00:22:09.204Z,90.48
2016-12-03T00:23:08.876Z,90.39
2016-12-03T00:24:09.200Z,90.3
2016-12-03T00:25:09.196Z,90.48
2016-12-03T00:26:08.868Z,90.11
2016-12-03T00:27:09.188Z,90.2
2016-12-03T00:28:09.184Z,90.77
2016-12-03T00:29:09.179Z,90.86
2016-12-03T00:30:09.176Z,90.91
2016-12-03T00:31:09.176Z,90.58
2016-12-03T00:32:09.172Z,90.11
2016-12-03T00:33:09.167Z,90.11
2016-12-03T00:34:09.164Z,90.48
2016-12-03T00:35:09.160Z,90.3
2016-12-03T00:36:09.156Z,90.67
2016-12-03T00:37:09.152Z,90.72
2016-12-03T00:38:09.147Z,90.3
2016-12-03T00:39:09.144Z,90.53
2016-12-03T00:40:09.140Z,90.72
2016-12-03T00:41:08.812Z,90.53
2016-12-03T00:42:09.132Z,90.77
2016-12-03T00:43:09.132Z,90.81
2016-12-03T00:44:09.124Z,90.72
2016-12-03T00:45:09.128Z,90.48
2016-12-03T00:46:08.792Z,90.58
2016-12-03T00:47:08.792Z,90.91
2016-12-03T00:48:09.112Z,91
2016-12-03T00:49:09.108Z,91.19
2016-12-03T00:50:09.104Z,91.29
2016-12-03T00:51:09.100Z,91.19
2016-12-03T00:52:09.096Z,91
2016-12-03T00:53:09.091Z,91.48
2016-12-03T00:54:09.092Z,91.67
2016-12-03T00:55:09.084Z,91.1
2016-12-03T00:56:09.084Z,91.38
2016-12-03T00:57:09.084Z,91.57
2016-12-03T00:58:09.076Z,91.67
2016-12-03T00:59:09.072Z,91.29
2016-12-03T01:00:09.068Z,91.1
2016-12-03T01:01:09.064Z,91.76
2016-12-03T01:02:09.060Z,91.76
2016-12-03T01:03:09.056Z,92.09
2016-12-03T01:04:09.052Z,92
2016-12-03T01:05:09.052Z,91.9
2016-12-03T01:06:09.048Z,91.24
2016-12-03T01:07:09.040Z,91.24
2016-12-03T01:08:09.044Z,91.24
2016-12-03T01:09:08.712Z,90.86
2016-12-03T01:10:09.032Z,90.29
2016-12-03T01:11:09.028Z,90.1
2016-12-03T01:12:09.024Z,90.1
2016-12-03T01:13:09.020Z,89.25
2016-12-03T01:14:09.016Z,89.53
2016-12-03T01:15:09.012Z,88.3
2016-12-03T01:16:09.009Z,88.35
2016-12-03T01:17:09.005Z,88.54
2016-12-03T01:18:09.004Z,88.16
2016-12-03T01:19:09.000Z,87.77
2016-12-03T01:20:08.997Z,87.68
2016-12-03T01:21:08.992Z,87.92
2016-12-03T01:22:08.988Z,88.06
2016-12-03T01:23:08.661Z,88.02
2016-12-03T01:24:09.181Z,87.26
2016-12-03T01:25:08.977Z,87.07
2016-12-03T01:26:08.973Z,86.93
2016-12-03T01:27:08.971Z,86.93
2016-12-03T01:28:08.964Z,87.12
2016-12-03T01:29:08.961Z,85.88
2016-12-03T01:30:08.960Z,86.45
2016-12-03T01:31:08.633Z,86.26
2016-12-03T01:32:08.952Z,86.16
2016-12-03T01:33:08.949Z,86.26
2016-12-03T01:34:08.945Z,86.35
2016-12-03T01:35:08.616Z,86.26
2016-12-03T01:36:08.936Z,86.16
2016-12-03T01:37:08.932Z,86.74
2016-12-03T01:38:08.929Z,86.35
2016-12-03T01:39:08.929Z,86.93
2016-12-03T01:40:08.921Z,86.83
2016-12-03T01:41:08.920Z,86.93
2016-12-03T01:42:08.917Z,87.26
2016-12-03T01:43:08.913Z,87.07
2016-12-03T01:44:08.909Z,87.07
2016-12-03T01:45:08.905Z,87.16
2016-12-03T01:46:08.905Z,87.64
2016-12-03T01:47:08.902Z,87.54
2016-12-03T01:48:08.893Z,87.64
2016-12-03T01:49:08.889Z,87.83
2016-12-03T01:50:08.885Z,87.64
2016-12-03T01:51:08.553Z,87.83
2016-12-03T01:52:08.878Z,87.73
2016-12-03T01:53:08.877Z,87.54
2016-12-03T01:54:08.873Z,87.83
2016-12-03T01:55:08.870Z,87.54
2016-12-03T01:56:08.865Z,87.54
2016-12-03T01:57:08.861Z,87.83
2016-12-03T01:58:08.861Z,87.73
2016-12-03T01:59:08.854Z,88.02
2016-12-03T02:00:08.530Z,87.73
2016-12-03T02:01:08.846Z,87.64
2016-12-03T02:02:08.846Z,87.54
2016-12-03T02:03:08.838Z,87.64
2016-12-03T02:04:08.838Z,87.73
2016-12-03T02:05:08.506Z,87.07
2016-12-03T02:06:08.830Z,87.35
2016-12-03T02:07:08.826Z,86.98
2016-12-03T02:08:08.822Z,87.16
2016-12-03T02:09:08.818Z,86.88
2016-12-03T02:10:08.814Z,86.98
2016-12-03T02:11:08.810Z,86.79
2016-12-03T02:12:08.806Z,86.5
2016-12-03T02:13:08.811Z,86.31
2016-12-03T02:14:08.802Z,86.69
2016-12-03T02:15:08.798Z,86.6
2016-12-03T02:16:08.794Z,86.69
2016-12-03T02:17:08.799Z,86.79
2016-12-03T02:18:08.786Z,86.69
2016-12-03T02:19:08.782Z,86.79
2016-12-03T02:20:08.778Z,86.79
2016-12-03T02:21:08.775Z,87.07
2016-12-03T02:22:08.770Z,86.69
2016-12-03T02:23:08.443Z,86.6
2016-12-03T02:24:08.442Z,86.88
2016-12-03T02:25:08.441Z,86.79
2016-12-03T02:26:08.759Z,86.88
2016-12-03T02:27:08.755Z,86.69
2016-12-03T02:28:08.750Z,86.6
2016-12-03T02:29:08.753Z,86.98
2016-12-03T02:30:08.743Z,87.07
2016-12-03T02:31:08.739Z,87.35
2016-12-03T02:32:08.735Z,87.07
2016-12-03T02:33:08.735Z,87.35
2016-12-03T02:34:08.727Z,87.07
2016-12-03T02:35:08.403Z,87.26
2016-12-03T02:36:08.723Z,86.98
2016-12-03T02:37:08.719Z,86.88
2016-12-03T02:38:08.715Z,86.88
2016-12-03T02:39:08.711Z,86.88
2016-12-03T02:40:08.707Z,86.88
2016-12-03T02:41:08.703Z,87.07
2016-12-03T02:42:08.699Z,87.16
2016-12-03T02:43:08.695Z,87.16
2016-12-03T02:44:08.699Z,87.07
2016-12-03T02:45:08.687Z,86.88
2016-12-03T02:46:08.687Z,86.6
2016-12-03T02:47:08.683Z,86.69
2016-12-03T02:48:08.687Z,87.16
2016-12-03T02:49:08.351Z,87.07
2016-12-03T02:50:08.671Z,86.79
2016-12-03T02:51:08.667Z,86.79
2016-12-03T02:52:08.663Z,86.88
2016-12-03T02:53:08.687Z,86.69
2016-12-03T02:54:08.655Z,86.98
2016-12-03T02:55:08.651Z,86.79
2016-12-03T02:56:08.647Z,86.6
2016-12-03T02:57:08.643Z,87.07
2016-12-03T02:58:08.643Z,86.79
2016-12-03T02:59:08.639Z,87.07
2016-12-03T03:00:08.635Z,87.16
2016-12-03T03:01:08.631Z,86.79
2016-12-03T03:02:08.628Z,87.26
2016-12-03T03:03:08.623Z,87.54
2016-12-03T03:04:08.292Z,87.64
2016-12-03T03:05:08.616Z,87.73
2016-12-03T03:06:08.612Z,87.35
2016-12-03T03:07:08.608Z,88.11
2016-12-03T03:08:08.604Z,87.83
2016-12-03T03:09:08.608Z,88.21
2016-12-03T03:10:08.596Z,88.26
2016-12-03T03:11:08.272Z,88.26
2016-12-03T03:12:08.265Z,89.01
2016-12-03T03:13:08.588Z,88.73
2016-12-03T03:14:08.260Z,89.11
2016-12-03T03:15:08.580Z,89.49
2016-12-03T03:16:08.578Z,89.2
2016-12-03T03:17:08.576Z,89.68
2016-12-03T03:18:08.247Z,89.11
2016-12-03T03:19:08.240Z,89.3
2016-12-03T03:20:08.560Z,89.49
2016-12-03T03:21:08.556Z,89.68
2016-12-03T03:22:08.552Z,89.3
2016-12-03T03:23:08.552Z,89.68
2016-12-03T03:24:08.548Z,89.39
2016-12-03T03:25:08.548Z,89.49
2016-12-03T03:26:08.540Z,89.58
2016-12-03T03:27:08.536Z,89.3
2016-12-03T03:28:08.532Z,89.3
2016-12-03T03:29:08.528Z,89.3
2016-12-03T03:30:08.200Z,89.2
2016-12-03T03:31:08.521Z,89.68
2016-12-03T03:32:08.516Z,88.54
2016-12-03T03:33:08.512Z,88.96
2016-12-03T03:34:08.512Z,88.92
2016-12-03T03:35:08.508Z,88.96
2016-12-03T03:36:08.504Z,88.73
2016-12-03T03:37:08.500Z,88.64
2016-12-03T03:38:08.501Z,88.02
2016-12-03T03:39:08.494Z,88.3
2016-12-03T03:40:08.500Z,88.26
2016-12-03T03:41:08.484Z,88.4
2016-12-03T03:42:08.480Z,88.68
2016-12-03T03:43:08.152Z,88.4
2016-12-03T03:44:08.474Z,88.45
2016-12-03T03:45:08.472Z,88.49
2016-12-03T03:46:08.468Z,88.3
2016-12-03T03:47:08.464Z,88.45
2016-12-03T03:48:08.461Z,88.45
2016-12-03T03:49:08.456Z,88.68
2016-12-03T03:50:08.452Z,88.4
2016-12-03T03:51:08.448Z,88.21
2016-12-03T03:52:08.448Z,88.45
2016-12-03T03:53:08.440Z,88.26
2016-12-03T03:54:08.435Z,88.26
2016-12-03T03:55:08.431Z,88.4
2016-12-03T03:56:08.427Z,88.17
2016-12-03T03:57:08.423Z,88.11
2016-12-03T03:58:08.423Z,88.11
2016-12-03T03:59:08.415Z,88.3
2016-12-03T04:00:08.415Z,87.92
2016-12-03T04:01:08.407Z,88.3
2016-12-03T04:02:08.411Z,87.83
2016-12-03T04:03:08.075Z,88.21
2016-12-03T04:04:08.398Z,88.21
2016-12-03T04:05:08.394Z,88.87
2016-12-03T04:06:08.390Z,88.17
2016-12-03T04:07:08.067Z,88.11
2016-12-03T04:08:08.383Z,87.83
2016-12-03T04:09:08.378Z,87.5
2016-12-03T04:10:08.379Z,87.73
2016-12-03T04:11:08.370Z,87.64
2016-12-03T04:12:08.365Z,87.59
2016-12-03T04:13:08.370Z,87.12
2016-12-03T04:14:08.358Z,87.26
2016-12-03T04:15:08.029Z,86.88
2016-12-03T04:16:08.350Z,86.83
2016-12-03T04:17:08.349Z,86.98
2016-12-03T04:18:08.021Z,86.69
2016-12-03T04:19:08.017Z,86.83
2016-12-03T04:20:08.337Z,86.5
2016-12-03T04:21:08.333Z,85.84
2016-12-03T04:22:08.329Z,86.03
2016-12-03T04:23:08.329Z,86.22
2016-12-03T04:24:08.325Z,86.41
2016-12-03T04:25:08.321Z,86.12
2016-12-03T04:26:08.319Z,85.65
2016-12-03T04:27:08.309Z,85.55
2016-12-03T04:28:08.312Z,85.65
2016-12-03T04:29:08.305Z,85.84
2016-12-03T04:30:08.297Z,85.36
2016-12-03T04:31:08.294Z,85.8
2016-12-03T04:32:08.288Z,85.51
2016-12-03T04:33:07.956Z,85.61
2016-12-03T04:34:08.289Z,85.23
2016-12-03T04:35:08.280Z,85.89
2016-12-03T04:36:07.952Z,85.51
2016-12-03T04:37:07.948Z,85.8
2016-12-03T04:38:08.272Z,85.99
2016-12-03T04:39:08.264Z,85.8
2016-12-03T04:40:08.263Z,85.89
2016-12-03T04:41:08.256Z,86.08
2016-12-03T04:42:08.253Z,85.99
2016-12-03T04:43:08.249Z,86.18
2016-12-03T04:44:07.921Z,86.08
2016-12-03T04:45:08.241Z,86.18
2016-12-03T04:46:08.237Z,86.27
2016-12-03T04:47:08.233Z,86.55
2016-12-03T04:48:08.229Z,86.65
2016-12-03T04:49:08.225Z,86.65
2016-12-03T04:50:08.221Z,86.65
2016-12-03T04:51:08.221Z,86.65
2016-12-03T04:52:08.221Z,86.65
2016-12-03T04:53:08.209Z,86.65
2016-12-03T04:54:08.210Z,86.08
2016-12-03T04:55:08.206Z,86.36
2016-12-03T04:56:08.201Z,86.74
2016-12-03T04:57:08.197Z,86.83
2016-12-03T04:58:08.193Z,86.93
2016-12-03T04:59:08.193Z,86.65
2016-12-03T05:00:08.194Z,86.55
2016-12-03T05:01:08.181Z,86.74
2016-12-03T05:02:08.183Z,86.55
2016-12-03T05:03:08.174Z,86.83
2016-12-03T05:04:08.170Z,86.83
2016-12-03T05:05:08.166Z,86.83
2016-12-03T05:06:08.162Z,86.74
2016-12-03T05:07:08.162Z,86.65
2016-12-03T05:08:08.154Z,86.55
2016-12-03T05:09:08.150Z,86.74
2016-12-03T05:10:07.822Z,86.83
2016-12-03T05:11:08.146Z,86.83
2016-12-03T05:12:07.814Z,86.83
2016-12-03T05:13:08.138Z,86.74
2016-12-03T05:14:08.134Z,86.83
2016-12-03T05:15:08.130Z,86.46
2016-12-03T05:16:08.131Z,86.65
2016-12-03T05:17:08.122Z,86.55
2016-12-03T05:18:08.118Z,86.93
2016-12-03T05:19:08.118Z,86.83
2016-12-03T05:20:07.787Z,85.8
2016-12-03T05:21:08.106Z,86.08
2016-12-03T05:22:07.781Z,86.18
2016-12-03T05:23:08.103Z,86.27
2016-12-03T05:24:08.098Z,85.99
2016-12-03T05:25:08.091Z,85.8
2016-12-03T05:26:08.091Z,85.99
2016-12-03T05:27:08.083Z,85.99
2016-12-03T05:28:08.079Z,85.8
2016-12-03T05:29:08.079Z,85.7
2016-12-03T05:30:08.070Z,85.61
2016-12-03T05:31:08.067Z,85.7
2016-12-03T05:32:08.067Z,85.61
2016-12-03T05:33:08.063Z,85.32
2016-12-03T05:34:08.055Z,85.51
2016-12-03T05:35:07.731Z,85.42
2016-12-03T05:36:08.047Z,85.23
2016-12-03T05:37:08.047Z,85.7
2016-12-03T05:38:08.049Z,85.42
2016-12-03T05:39:08.039Z,85.42
2016-12-03T05:40:08.035Z,85.13
2016-12-03T05:41:08.031Z,85.89
2016-12-03T05:42:08.027Z,85.99
2016-12-03T05:43:08.023Z,85.89
2016-12-03T05:44:08.019Z,85.8
2016-12-03T05:45:08.015Z,85.61
2016-12-03T05:46:08.017Z,85.61
2016-12-03T05:47:08.007Z,85.7
2016-12-03T05:48:08.007Z,85.42
2016-12-03T05:49:08.000Z,85.51
2016-12-03T05:50:07.998Z,85.8
2016-12-03T05:51:07.991Z,85.99
2016-12-03T05:52:07.663Z,86.18
2016-12-03T05:53:07.987Z,85.89
2016-12-03T05:54:07.979Z,85.89
2016-12-03T05:55:07.990Z,86.74
2016-12-03T05:56:07.972Z,86.83
2016-12-03T05:57:07.967Z,86.83
2016-12-03T05:58:07.963Z,86.83
2016-12-03T05:59:07.964Z,85.99
2016-12-03T06:00:07.956Z,86.18
2016-12-03T06:01:07.952Z,86.18
2016-12-03T06:02:07.948Z,85.8
2016-12-03T06:03:07.944Z,85.89
2016-12-03T06:04:07.940Z,86.65
2016-12-03T06:05:07.944Z,86.18
2016-12-03T06:06:07.608Z,85.89
2016-12-03T06:07:07.600Z,86.27
2016-12-03T06:08:07.928Z,86.08
2016-12-03T06:09:07.920Z,86.18
2016-12-03T06:10:07.920Z,86.83
2016-12-03T06:11:07.916Z,86.7
2016-12-03T06:12:07.912Z,86.79
2016-12-03T06:13:07.909Z,86.79
2016-12-03T06:14:07.904Z,87.08
2016-12-03T06:15:07.900Z,86.98
2016-12-03T06:16:07.897Z,87.27
2016-12-03T06:17:07.893Z,87.65
2016-12-03T06:18:07.889Z,87.65
2016-12-03T06:19:07.885Z,88.31
2016-12-03T06:20:07.889Z,88.12
2016-12-03T06:21:07.553Z,88.21
2016-12-03T06:22:07.877Z,88.12
2016-12-03T06:23:07.897Z,88.31
2016-12-03T06:24:07.869Z,88.97
2016-12-03T06:25:07.861Z,88.68
2016-12-03T06:26:07.861Z,88.59
2016-12-03T06:27:07.853Z,89.44
2016-12-03T06:28:07.850Z,89.06
2016-12-03T06:29:07.849Z,89.31
2016-12-03T06:30:07.842Z,89.44
2016-12-03T06:31:07.837Z,89.5
2016-12-03T06:32:07.834Z,89.5
2016-12-03T06:33:07.830Z,89.78
2016-12-03T06:34:07.826Z,90.34
2016-12-03T06:35:07.850Z,90.25
2016-12-03T06:36:07.818Z,90.25
2016-12-03T06:37:07.814Z,90.25
2016-12-03T06:38:07.810Z,90.25
2016-12-03T06:39:07.806Z,89.97
2016-12-03T06:40:07.819Z,90.06
2016-12-03T06:41:07.798Z,90.06
2016-12-03T06:42:07.794Z,90.16
2016-12-03T06:43:07.490Z,90.16
2016-12-03T06:44:07.787Z,90.06
2016-12-03T06:45:07.783Z,90.16
2016-12-03T06:46:07.779Z,90.06
2016-12-03T06:47:07.775Z,90.16
2016-12-03T06:48:07.773Z,90.3
2016-12-03T06:49:07.771Z,89.44
2016-12-03T06:50:07.764Z,89.5
2016-12-03T06:51:07.440Z,89.54
2016-12-03T06:52:07.764Z,89.35
2016-12-03T06:53:07.755Z,89.31
2016-12-03T06:54:07.420Z,89.4
2016-12-03T06:55:07.752Z,89.25
2016-12-03T06:56:07.744Z,88.78
2016-12-03T06:57:07.736Z,89.12
2016-12-03T06:58:07.736Z,89.44
2016-12-03T06:59:07.733Z,89.16
2016-12-03T07:00:07.725Z,88.78
2016-12-03T07:01:07.725Z,88.64
2016-12-03T07:02:07.721Z,89.21
2016-12-03T07:03:07.765Z,89.21
2016-12-03T07:04:07.710Z,89.12
2016-12-03T07:05:07.705Z,89.31
2016-12-03T07:06:07.705Z,88.83
2016-12-03T07:07:07.705Z,88.64
2016-12-03T07:08:07.693Z,89.12
2016-12-03T07:09:07.698Z,89.21
2016-12-03T07:10:07.690Z,88.64
2016-12-03T07:11:07.682Z,88.55
2016-12-03T07:12:07.678Z,88.55
2016-12-03T07:13:07.354Z,88.55
2016-12-03T07:14:07.674Z,88.55
2016-12-03T07:15:07.343Z,88.55
2016-12-03T07:16:07.663Z,88.45
2016-12-03T07:17:07.667Z,88.55
2016-12-03T07:18:07.661Z,88.74
2016-12-03T07:19:07.651Z,88.93
2016-12-03T07:20:07.851Z,88.83
2016-12-03T07:21:07.647Z,88.64
2016-12-03T07:22:07.640Z,88.36
2016-12-03T07:23:07.636Z,88.64
2016-12-03T07:24:07.632Z,88.17
2016-12-03T07:25:07.632Z,88.36
2016-12-03T07:26:07.624Z,88.55
2016-12-03T07:27:07.620Z,88.36
2016-12-03T07:28:07.616Z,87.6
2016-12-03T07:29:07.616Z,87.13
2016-12-03T07:30:07.609Z,87.51
2016-12-03T07:31:07.609Z,87.6
2016-12-03T07:32:07.601Z,87.41
2016-12-03T07:33:07.601Z,87.6
2016-12-03T07:34:07.593Z,87.51
2016-12-03T07:35:07.589Z,87.41
2016-12-03T07:36:07.589Z,86.94
2016-12-03T07:37:07.586Z,86.75
2016-12-03T07:38:07.578Z,86.94
2016-12-03T07:39:07.574Z,87.6
2016-12-03T07:40:07.250Z,86.94
2016-12-03T07:41:07.238Z,86.94
2016-12-03T07:42:07.562Z,87.32
2016-12-03T07:43:07.562Z,87.41
2016-12-03T07:44:07.230Z,87.51
2016-12-03T07:45:07.551Z,87.51
2016-12-03T07:46:07.547Z,86.85
2016-12-03T07:47:07.543Z,86.94
2016-12-03T07:48:07.539Z,87.04
2016-12-03T07:49:07.535Z,86.66
2016-12-03T07:50:07.535Z,86.85
2016-12-03T07:51:07.527Z,86.85
2016-12-03T07:52:07.523Z,86.66
2016-12-03T07:53:07.519Z,86.28
2016-12-03T07:54:07.519Z,86.47
2016-12-03T07:55:07.512Z,86.75
2016-12-03T07:56:07.188Z,86.37
2016-12-03T07:57:07.512Z,85.9
2016-12-03T07:58:07.500Z,86.28
2016-12-03T07:59:07.496Z,85.9
2016-12-03T08:00:07.496Z,85.99
2016-12-03T08:01:07.494Z,85.52
2016-12-03T08:02:07.488Z,85.71
2016-12-03T08:03:07.480Z,85.71
2016-12-03T08:04:07.476Z,85.9
2016-12-03T08:05:07.148Z,85.52
2016-12-03T08:06:07.468Z,85.61
2016-12-03T08:07:07.468Z,85.8
2016-12-03T08:08:07.460Z,85.52
2016-12-03T08:09:07.456Z,85.05
2016-12-03T08:10:07.129Z,85.05
2016-12-03T08:11:07.449Z,85.05
2016-12-03T08:12:07.445Z,84.39
2016-12-03T08:13:07.445Z,84.58
2016-12-03T08:14:07.437Z,84.86
2016-12-03T08:15:07.433Z,84.86
2016-12-03T08:16:07.433Z,84.52
2016-12-03T08:17:07.429Z,84.42
2016-12-03T08:18:07.422Z,84.05
2016-12-03T08:19:07.417Z,83.86
2016-12-03T08:20:07.417Z,84.29
2016-12-03T08:21:07.410Z,83.39
2016-12-03T08:22:07.406Z,83.63
2016-12-03T08:23:07.406Z,83.67
2016-12-03T08:24:07.402Z,83.86
2016-12-03T08:25:07.074Z,83.53
2016-12-03T08:26:07.394Z,83.01
2016-12-03T08:27:07.390Z,82.91
2016-12-03T08:28:07.390Z,83.1
2016-12-03T08:29:07.058Z,82.97
2016-12-03T08:30:07.378Z,82.97
2016-12-03T08:31:07.378Z,82.53
2016-12-03T08:32:07.370Z,82.78
2016-12-03T08:33:07.366Z,82.72
2016-12-03T08:34:07.362Z,82.72
2016-12-03T08:35:07.370Z,82.82
2016-12-03T08:36:07.354Z,82.72
2016-12-03T08:37:07.354Z,82.91
2016-12-03T08:38:07.346Z,81.93
2016-12-03T08:39:07.342Z,82.34
2016-12-03T08:40:07.339Z,82.53
2016-12-03T08:41:07.334Z,82.44
2016-12-03T08:42:07.331Z,82.34
2016-12-03T08:43:06.998Z,82.53
2016-12-03T08:44:07.322Z,82.06
2016-12-03T08:45:07.323Z,81.96
2016-12-03T08:46:07.315Z,82.15
2016-12-03T08:47:07.311Z,82.15
2016-12-03T08:48:07.307Z,81.4
2016-12-03T08:49:07.303Z,81.87
2016-12-03T08:50:07.299Z,81.3
2016-12-03T08:51:07.295Z,81.02
2016-12-03T08:52:07.294Z,80.93
2016-12-03T08:53:07.287Z,80.74
2016-12-03T08:54:07.283Z,80.64
2016-12-03T08:55:07.279Z,80.64
2016-12-03T08:56:07.279Z,80.17
2016-12-03T08:57:07.271Z,80.26
2016-12-03T08:58:06.947Z,79.69
2016-12-03T08:59:07.267Z,79.69
2016-12-03T09:00:07.263Z,79.32
2016-12-03T09:01:07.268Z,79.41
2016-12-03T09:02:07.255Z,79.41
2016-12-03T09:03:07.253Z,78.65
2016-12-03T09:04:07.247Z,78.94
2016-12-03T09:05:07.248Z,78.27
2016-12-03T09:06:07.239Z,78.27
2016-12-03T09:07:07.235Z,78.08
2016-12-03T09:08:07.231Z,77.89
2016-12-03T09:09:07.228Z,77.08
2016-12-03T09:10:07.224Z,75.47
2016-12-03T09:11:06.896Z,74.81
2016-12-03T09:12:07.224Z,74.18
2016-12-03T09:13:06.884Z,72.19
2016-12-03T09:14:07.208Z,71.47
2016-12-03T09:15:07.208Z,69.86
2016-12-03T09:16:07.200Z,68.15
2016-12-03T09:17:07.204Z,66.96
2016-12-03T09:18:07.196Z,66.29
2016-12-03T09:19:07.192Z,65.63
2016-12-03T09:20:07.188Z,65.82
2016-12-03T09:21:07.188Z,65.78
2016-12-03T09:22:07.180Z,66.54
2016-12-03T09:23:07.176Z,67.02
2016-12-03T09:24:06.848Z,67.68
2016-12-03T09:25:07.168Z,68.59
2016-12-03T09:26:07.164Z,68.59
2016-12-03T09:27:07.160Z,68.98
2016-12-03T09:28:07.160Z,69.73
2016-12-03T09:29:07.156Z,70.07
2016-12-03T09:30:07.152Z,70.83
2016-12-03T09:31:07.148Z,70.93
2016-12-03T09:32:07.144Z,71.21
2016-12-03T09:33:07.140Z,71.88
2016-12-03T09:34:07.136Z,71.78
2016-12-03T09:35:07.136Z,71.97
2016-12-03T09:36:07.129Z,71.69
2016-12-03T09:37:07.125Z,71.78
2016-12-03T09:38:06.796Z,71.78
2016-12-03T09:39:06.792Z,71.97
2016-12-03T09:40:07.125Z,72.25
2016-12-03T09:41:07.113Z,71.97
2016-12-03T09:42:07.109Z,71.97
2016-12-03T09:43:06.780Z,72.06
2016-12-03T09:44:07.101Z,71.69
2016-12-03T09:45:07.100Z,71.78
2016-12-03T09:46:07.093Z,71.5
2016-12-03T09:47:07.089Z,71.5
2016-12-03T09:48:07.093Z,71.59
2016-12-03T09:49:07.093Z,71.69
2016-12-03T09:50:07.081Z,71.31
2016-12-03T09:51:07.081Z,71.21
2016-12-03T09:52:07.073Z,71.12
2016-12-03T09:53:07.073Z,71.21
2016-12-03T09:54:06.741Z,71.4
2016-12-03T09:55:07.060Z,71.4
2016-12-03T09:56:07.056Z,71.4
2016-12-03T09:57:07.057Z,71.31
2016-12-03T09:58:07.053Z,71.4
2016-12-03T09:59:07.056Z,71.4
2016-12-03T10:00:07.046Z,71.5
2016-12-03T10:01:07.041Z,71.31
2016-12-03T10:02:07.036Z,71.12
2016-12-03T10:03:07.032Z,70.83
2016-12-03T10:04:07.032Z,70.93
2016-12-03T10:05:07.028Z,70.83
2016-12-03T10:06:07.032Z,70.45
2016-12-03T10:07:06.696Z,70.17
2016-12-03T10:08:07.020Z,70.26
2016-12-03T10:09:07.012Z,70.26
2016-12-03T10:10:07.008Z,70.26
2016-12-03T10:11:07.008Z,69.89
2016-12-03T10:12:07.004Z,69.98
2016-12-03T10:13:07.000Z,69.79
2016-12-03T10:14:06.996Z,69.98
2016-12-03T10:15:06.996Z,69.98
2016-12-03T10:16:06.988Z,69.98
2016-12-03T10:17:06.983Z,69.79
2016-12-03T10:18:06.980Z,69.7
2016-12-03T10:19:06.652Z,69.6
2016-12-03T10:20:06.980Z,69.7
2016-12-03T10:21:06.972Z,69.51
2016-12-03T10:22:06.644Z,69.41
2016-12-03T10:23:06.640Z,69.22
2016-12-03T10:24:06.644Z,69.7
2016-12-03T10:25:06.956Z,70.07
2016-12-03T10:26:06.624Z,69.79
2016-12-03T10:27:06.956Z,69.32
2016-12-03T10:28:06.947Z,69.51
2016-12-03T10:29:06.947Z,69.6
2016-12-03T10:30:06.945Z,69.6
2016-12-03T10:31:06.935Z,69.51
2016-12-03T10:32:06.931Z,69.22
2016-12-03T10:33:06.931Z,69.79
2016-12-03T10:34:06.930Z,69.89
2016-12-03T10:35:06.922Z,69.98
2016-12-03T10:36:06.918Z,69.41
2016-12-03T10:37:06.790Z,69.41
2016-12-03T10:38:06.914Z,69.7
2016-12-03T10:39:06.909Z,69.79
2016-12-03T10:40:06.901Z,69.41
2016-12-03T10:41:06.901Z,69.64
2016-12-03T10:42:06.897Z,69.35
2016-12-03T10:43:06.893Z,68.59
2016-12-03T10:44:06.889Z,68.4
2016-12-03T10:45:06.889Z,68.4
2016-12-03T10:46:06.880Z,68.59
2016-12-03T10:47:06.552Z,68.88
2016-12-03T10:48:06.873Z,68.59
2016-12-03T10:49:06.872Z,68.18
2016-12-03T10:50:06.872Z,68.21
2016-12-03T10:51:06.864Z,68.4
2016-12-03T10:52:06.536Z,68.59
2016-12-03T10:53:06.856Z,68.08
2016-12-03T10:54:06.852Z,68.56
2016-12-03T10:55:06.848Z,68.59
2016-12-03T10:56:06.847Z,68.21
2016-12-03T10:57:06.844Z,68.31
2016-12-03T10:58:06.839Z,68.12
2016-12-03T10:59:06.835Z,68.12
2016-12-03T11:00:06.835Z,68.31
2016-12-03T11:01:06.831Z,67.83
2016-12-03T11:02:06.823Z,68.12
2016-12-03T11:03:06.823Z,67.55
2016-12-03T11:04:06.495Z,67.65
2016-12-03T11:05:06.819Z,67.93
2016-12-03T11:06:06.815Z,67.74
2016-12-03T11:07:06.807Z,67.36
2016-12-03T11:08:06.807Z,67.65
2016-12-03T11:09:06.802Z,67.55
2016-12-03T11:10:06.802Z,67.27
2016-12-03T11:11:06.799Z,66.7
2016-12-03T11:12:06.790Z,67.36
2016-12-03T11:13:06.786Z,67.27
2016-12-03T11:14:06.786Z,66.89
2016-12-03T11:15:06.782Z,66.8
2016-12-03T11:16:06.778Z,66.99
2016-12-03T11:17:06.774Z,66.89
2016-12-03T11:18:06.771Z,67.27
2016-12-03T11:19:06.766Z,67.08
2016-12-03T11:20:06.766Z,66.41
2016-12-03T11:21:06.762Z,66.32
2016-12-03T11:22:06.758Z,66.51
2016-12-03T11:23:06.754Z,66.32
2016-12-03T11:24:06.750Z,66.32
2016-12-03T11:25:06.422Z,66.32
2016-12-03T11:26:06.742Z,66.7
2016-12-03T11:27:06.739Z,66.6
2016-12-03T11:28:06.738Z,66.89
2016-12-03T11:29:06.735Z,66.89
2016-12-03T11:30:06.731Z,66.41
2016-12-03T11:31:06.727Z,66.32
2016-12-03T11:32:06.723Z,66.35
2016-12-03T11:33:06.727Z,66.54
2016-12-03T11:34:06.855Z,66.03
2016-12-03T11:35:06.715Z,65.94
2016-12-03T11:36:06.711Z,65.97
2016-12-03T11:37:06.711Z,65.22
2016-12-03T11:38:06.711Z,65.5
2016-12-03T11:39:06.703Z,65.69
2016-12-03T11:40:06.707Z,65.12
2016-12-03T11:41:06.695Z,65.41
2016-12-03T11:42:06.695Z,65.22
2016-12-03T11:43:06.367Z,65.41
2016-12-03T11:44:06.688Z,65.31
2016-12-03T11:45:06.684Z,65.31
2016-12-03T11:46:06.680Z,65.41
2016-12-03T11:47:06.676Z,65.31
2016-12-03T11:48:06.704Z,65.31
2016-12-03T11:49:06.672Z,65.03
2016-12-03T11:50:06.344Z,65.12
2016-12-03T11:51:06.664Z,65.22
2016-12-03T11:52:06.660Z,65.88
2016-12-03T11:53:06.656Z,65.22
2016-12-03T11:54:06.660Z,64.93
2016-12-03T11:55:06.657Z,64.55
2016-12-03T11:56:06.648Z,63.98
2016-12-03T11:57:06.644Z,63.98
2016-12-03T11:58:06.316Z,64.17
2016-12-03T11:59:06.641Z,64.46
2016-12-03T12:00:06.637Z,63.98
2016-12-03T12:01:06.309Z,64.46
2016-12-03T12:02:06.629Z,64.17
2016-12-03T12:03:06.625Z,64.36
2016-12-03T12:04:06.621Z,64.08
2016-12-03T12:05:06.625Z,64.08
2016-12-03T12:06:06.617Z,63.89
2016-12-03T12:07:06.289Z,63.98
2016-12-03T12:08:06.614Z,63.98
2016-12-03T12:09:06.605Z,64.08
2016-12-03T12:10:06.609Z,64.17
2016-12-03T12:11:06.602Z,63.7
2016-12-03T12:12:06.602Z,63.32
2016-12-03T12:13:06.594Z,64.27
2016-12-03T12:14:06.590Z,63.79
2016-12-03T12:15:06.586Z,64.27
2016-12-03T12:16:06.586Z,64.36
2016-12-03T12:17:06.582Z,63.89
2016-12-03T12:18:06.579Z,63.51
2016-12-03T12:19:06.575Z,63.04
2016-12-03T12:20:06.571Z,62.75
2016-12-03T12:21:06.567Z,63.13
2016-12-03T12:22:06.563Z,62.94
2016-12-03T12:23:06.235Z,62.85
2016-12-03T12:24:06.559Z,62.56
2016-12-03T12:25:06.231Z,62.37
2016-12-03T12:26:06.551Z,62.75
2016-12-03T12:27:06.548Z,62.47
2016-12-03T12:28:06.548Z,62.94
2016-12-03T12:29:06.544Z,62.94
2016-12-03T12:30:06.540Z,62.94
2016-12-03T12:31:06.212Z,62.85
2016-12-03T12:32:06.572Z,63.23
2016-12-03T12:33:06.536Z,63.23
2016-12-03T12:34:06.529Z,62.75
2016-12-03T12:35:06.201Z,63.04
2016-12-03T12:36:06.520Z,62.56
2016-12-03T12:37:06.517Z,62.66
2016-12-03T12:38:06.521Z,62.56
2016-12-03T12:39:06.513Z,62.85
2016-12-03T12:40:06.509Z,62.08
2016-12-03T12:41:06.505Z,61.99
2016-12-03T12:42:06.505Z,62.18
2016-12-03T12:43:06.504Z,62.08
2016-12-03T12:44:06.497Z,62.18
2016-12-03T12:45:06.494Z,62.08
2016-12-03T12:46:06.491Z,61.99
2016-12-03T12:47:06.485Z,62.18
2016-12-03T12:48:06.481Z,61.99
2016-12-03T12:49:06.481Z,62.08
2016-12-03T12:50:06.477Z,62.47
2016-12-03T12:51:06.473Z,62.08
2016-12-03T12:52:06.473Z,62.08
2016-12-03T12:53:06.465Z,62.56
2016-12-03T12:54:06.465Z,62.21
2016-12-03T12:55:06.465Z,62.37